Amasa, Michigan
Current Conditions -  °F | °C
As of 1:54 AM on Saturday 29 Nov 2014 (Local Time) from KIMT Reporting Station
Overcast Overcast  
Wind Chill: 17°   Ceiling: 800
Heat Index: 17°   Visibility: 9mi
Dew Point: 14°   Wind: 0mph
Humidity: 88%   Direction: NA
Pressure: 29.76"   Gusts: NA
Location:  46.23°N, 88.45°W
Report Text: KIMT 290754Z AUTO 00000KT 9SM OVC008 M08/M10 A2976 RMK AO2 CIG 005V010 SLP102 T10831100
Loading
Personal Weather Stations






























Interactive Weather Map New forecast layout! Learn more

10-Day Weather Forecast

Advertisements
Track Severe Weather on mobile